sensor_id;sensor_type;location;lat;lon;timestamp;P1;P2;P0
45112;PMS5003;30873;53.908;27.576;2023-04-16T00:01:40;14.2;12;7.7
45112;PMS5003;30873;53.908;27.576;2023-04-16T00:06:12;16.7;13.6;8.5
45112;PMS5003;30873;53.908;27.576;2023-04-16T00:11:40;15.9;13.5;9.3
45112;PMS5003;30873;53.908;27.576;2023-04-16T00:16:28;17.1;14.6;9.7
45112;PMS5003;30873;53.908;27.576;2023-04-16T00:21:42;17.2;14.3;9.3
45112;PMS5003;30873;53.908;27.576;2023-04-16T00:26:42;17;15.1;10.1
45112;PMS5003;30873;53.908;27.576;2023-04-16T00:31:06;17.1;14.7;10.4
45112;PMS5003;30873;53.908;27.576;2023-04-16T00:36:42;18.2;15;9.3
45112;PMS5003;30873;53.908;27.576;2023-04-16T00:41:28;17.3;15.1;9.5
45112;PMS5003;30873;53.908;27.576;2023-04-16T00:46:00;15.8;13.8;9.4
45112;PMS5003;30873;53.908;27.576;2023-04-16T00:51:42;18.2;15.6;9.4
45112;PMS5003;30873;53.908;27.576;2023-04-16T00:56:16;21.1;16.3;10.8
45112;PMS5003;30873;53.908;27.576;2023-04-16T01:01:42;18.5;16.2;9.5
45112;PMS5003;30873;53.908;27.576;2023-04-16T01:06:26;19.5;17.1;10.1
45112;PMS5003;30873;53.908;27.576;2023-04-16T01:11:12;17.4;15.3;9.9
45112;PMS5003;30873;53.908;27.576;2023-04-16T01:16:42;18.1;15.6;9.7
45112;PMS5003;30873;53.908;27.576;2023-04-16T01:21:10;19.5;16.5;9.7
45112;PMS5003;30873;53.908;27.576;2023-04-16T01:26:28;19.1;16.3;10.4
45112;PMS5003;30873;53.908;27.576;2023-04-16T01:31:28;19.6;16.4;9.9
45112;PMS5003;30873;53.908;27.576;2023-04-16T01:36:18;17.4;16.2;9.7
45112;PMS5003;30873;53.908;27.576;2023-04-16T01:41:40;18;15.6;10
45112;PMS5003;30873;53.908;27.576;2023-04-16T01:46:08;18.4;16;10.2
45112;PMS5003;30873;53.908;27.576;2023-04-16T01:51:42;19.2;16.4;10.2
45112;PMS5003;30873;53.908;27.576;2023-04-16T01:56:28;19.5;16.2;10.1
45112;PMS5003;30873;53.908;27.576;2023-04-16T02:01:00;18;16.5;10.4
45112;PMS5003;30873;53.908;27.576;2023-04-16T02:06:42;19.5;16.2;9.8
45112;PMS5003;30873;53.908;27.576;2023-04-16T02:11:00;19.4;16.9;9.8
45112;PMS5003;30873;53.908;27.576;2023-04-16T02:16:30;18;15.5;10.2
45112;PMS5003;30873;53.908;27.576;2023-04-16T02:21:28;20.2;17.8;10.7
45112;PMS5003;30873;53.908;27.576;2023-04-16T02:26:01;19.4;17;10.5
45112;PMS5003;30873;53.908;27.576;2023-04-16T02:31:42;18.9;16.2;10.3
45112;PMS5003;30873;53.908;27.576;2023-04-16T02:36:16;19.8;17.1;10.1
45112;PMS5003;30873;53.908;27.576;2023-04-16T02:41:42;21.9;18.9;11.4
45112;PMS5003;30873;53.908;27.576;2023-04-16T02:46:28;21.3;17.6;11.7
45112;PMS5003;30873;53.908;27.576;2023-04-16T02:51:16;23.4;20.2;12
45112;PMS5003;30873;53.908;27.576;2023-04-16T02:56:40;20.7;18.4;11.8
45112;PMS5003;30873;53.908;27.576;2023-04-16T03:01:06;21.4;18.4;11.9
45112;PMS5003;30873;53.908;27.576;2023-04-16T03:06:40;22.8;20;12.5
45112;PMS5003;30873;53.908;27.576;2023-04-16T03:11:40;22.8;18.9;11.7
45112;PMS5003;30873;53.908;27.576;2023-04-16T03:16:26;23.9;19.2;11.9
45112;PMS5003;30873;53.908;27.576;2023-04-16T03:21:28;22.3;19.5;12.2
45112;PMS5003;30873;53.908;27.576;2023-04-16T03:26:16;23;19;12
45112;PMS5003;30873;53.908;27.576;2023-04-16T03:31:40;23.9;20.4;12.7
45112;PMS5003;30873;53.908;27.576;2023-04-16T03:36:28;22.4;19.7;12.8
45112;PMS5003;30873;53.908;27.576;2023-04-16T03:41:16;25.8;20.3;13.2
45112;PMS5003;30873;53.908;27.576;2023-04-16T03:46:22;24.6;20.6;12.4
45112;PMS5003;30873;53.908;27.576;2023-04-16T03:51:28;25.1;20.2;12.6
45112;PMS5003;30873;53.908;27.576;2023-04-16T03:56:40;26;23.3;14.1
45112;PMS5003;30873;53.908;27.576;2023-04-16T04:01:28;26.6;22.6;14.6
45112;PMS5003;30873;53.908;27.576;2023-04-16T04:06:00;24.6;21.7;13.8
45112;PMS5003;30873;53.908;27.576;2023-04-16T04:11:28;23.6;20.7;13.9
45112;PMS5003;30873;53.908;27.576;2023-04-16T04:16:16;28;24.5;15.5
45112;PMS5003;30873;53.908;27.576;2023-04-16T04:21:40;26.1;22.2;14.1
45112;PMS5003;30873;53.908;27.576;2023-04-16T04:26:28;29.3;24.9;15.7
45112;PMS5003;30873;53.908;27.576;2023-04-16T04:31:00;29.2;25.2;16.3
45112;PMS5003;30873;53.908;27.576;2023-04-16T04:36:28;32.4;28.7;19
45112;PMS5003;30873;53.908;27.576;2023-04-16T04:41:16;34.7;31.1;21.1
45112;PMS5003;30873;53.908;27.576;2023-04-16T04:46:40;34.1;28.9;19.9
45112;PMS5003;30873;53.908;27.576;2023-04-16T04:51:26;32;27.1;17.4
45112;PMS5003;30873;53.908;27.576;2023-04-16T04:56:16;37.7;31.1;21.2
45112;PMS5003;30873;53.908;27.576;2023-04-16T05:01:26;37.9;32.4;22
45112;PMS5003;30873;53.908;27.576;2023-04-16T05:06:28;33.1;29.3;18.9
45112;PMS5003;30873;53.908;27.576;2023-04-16T05:11:40;38.7;31.9;21.7
45112;PMS5003;30873;53.908;27.576;2023-04-16T05:16:22;33.2;29;18.1
45112;PMS5003;30873;53.908;27.576;2023-04-16T05:21:08;36.7;30.8;18.8
45112;PMS5003;30873;53.908;27.576;2023-04-16T05:26:02;36.5;31.7;21.3
45112;PMS5003;30873;53.908;27.576;2023-04-16T05:31:18;35.8;32.2;20.8
45112;PMS5003;30873;53.908;27.576;2023-04-16T05:36:42;35.2;29.8;18.4
45112;PMS5003;30873;53.908;27.576;2023-04-16T05:41:30;34.2;30.1;20.5
45112;PMS5003;30873;53.908;27.576;2023-04-16T05:46:08;34.9;29.5;18.6
45112;PMS5003;30873;53.908;27.576;2023-04-16T05:51:30;32.9;28.2;18
45112;PMS5003;30873;53.908;27.576;2023-04-16T05:56:18;32.8;28.5;16.6
45112;PMS5003;30873;53.908;27.576;2023-04-16T06:01:42;31.9;26.8;16.8
45112;PMS5003;30873;53.908;27.576;2023-04-16T06:06:30;33.2;27.4;15.8
45112;PMS5003;30873;53.908;27.576;2023-04-16T06:11:00;33.3;27.6;16.7
45112;PMS5003;30873;53.908;27.576;2023-04-16T06:16:30;33.2;27.4;16.6
45112;PMS5003;30873;53.908;27.576;2023-04-16T06:21:18;33.6;28.4;16.2
45112;PMS5003;30873;53.908;27.576;2023-04-16T06:26:42;35.1;29.6;17.2
45112;PMS5003;30873;53.908;27.576;2023-04-16T06:31:30;35.8;29.4;17
45112;PMS5003;30873;53.908;27.576;2023-04-16T06:36:28;35.4;29.9;17.2
45112;PMS5003;30873;53.908;27.576;2023-04-16T06:41:30;35.9;30;16.4
45112;PMS5003;30873;53.908;27.576;2023-04-16T06:46:18;34.8;29.2;16.3
45112;PMS5003;30873;53.908;27.576;2023-04-16T06:51:40;33.4;27.8;16.3
45112;PMS5003;30873;53.908;27.576;2023-04-16T06:56:42;33.1;27.3;16.1
45112;PMS5003;30873;53.908;27.576;2023-04-16T07:01:00;34.9;26.9;15.8
45112;PMS5003;30873;53.908;27.576;2023-04-16T07:06:30;30.3;26;15.5
45112;PMS5003;30873;53.908;27.576;2023-04-16T07:11:18;31;26.1;14.8
45112;PMS5003;30873;53.908;27.576;2023-04-16T07:16:44;28.6;24.8;13.6
45112;PMS5003;30873;53.908;27.576;2023-04-16T07:21:20;29.8;24.3;13.7
45112;PMS5003;30873;53.908;27.576;2023-04-16T07:26:30;30.6;25.2;14.4
45112;PMS5003;30873;53.908;27.576;2023-04-16T07:31:32;28.4;22.4;13.2
45112;PMS5003;30873;53.908;27.576;2023-04-16T07:36:20;31.3;24.4;14.2
45112;PMS5003;30873;53.908;27.576;2023-04-16T07:41:44;30.5;25.7;14.7
45112;PMS5003;30873;53.908;27.576;2023-04-16T07:46:12;33.5;26.9;14.8
45112;PMS5003;30873;53.908;27.576;2023-04-16T07:51:08;33.2;27.3;15.2
45112;PMS5003;30873;53.908;27.576;2023-04-16T07:56:32;32.7;26.6;14.8
45112;PMS5003;30873;53.908;27.576;2023-04-16T08:01:12;33.5;26.1;15.2
45112;PMS5003;30873;53.908;27.576;2023-04-16T08:06:44;35.5;28;15.5
45112;PMS5003;30873;53.908;27.576;2023-04-16T08:11:20;35.1;27.6;14.6
45112;PMS5003;30873;53.908;27.576;2023-04-16T08:16:00;30.8;25.9;15.2
45112;PMS5003;30873;53.908;27.576;2023-04-16T08:21:32;32.7;26.5;13.8
45112;PMS5003;30873;53.908;27.576;2023-04-16T08:26:20;29.3;24.2;14.4
45112;PMS5003;30873;53.908;27.576;2023-04-16T08:31:44;31.7;25.1;14.6
45112;PMS5003;30873;53.908;27.576;2023-04-16T08:36:24;28.5;22.4;13
45112;PMS5003;30873;53.908;27.576;2023-04-16T08:41:08;26.8;22.3;13
45112;PMS5003;30873;53.908;27.576;2023-04-16T08:46:32;25.7;21.3;12.8
45112;PMS5003;30873;53.908;27.576;2023-04-16T08:51:21;26.1;22.3;12.8
45112;PMS5003;30873;53.908;27.576;2023-04-16T08:56:44;26.7;22;12.7
45112;PMS5003;30873;53.908;27.576;2023-04-16T09:01:20;24.9;21.9;13.2
45112;PMS5003;30873;53.908;27.576;2023-04-16T09:06:00;26.2;21.9;12.7
45112;PMS5003;30873;53.908;27.576;2023-04-16T09:11:32;25.1;21.2;12.2
45112;PMS5003;30873;53.908;27.576;2023-04-16T09:16:20;25.7;21.2;12.7
45112;PMS5003;30873;53.908;27.576;2023-04-16T09:21:44;26.1;21.4;12.6
45112;PMS5003;30873;53.908;27.576;2023-04-16T09:26:00;27.2;22.9;13.6
45112;PMS5003;30873;53.908;27.576;2023-04-16T09:31:10;28.9;23.3;12.9
45112;PMS5003;30873;53.908;27.576;2023-04-16T09:36:32;24.7;22.7;12.9
45112;PMS5003;30873;53.908;27.576;2023-04-16T09:41:23;23.7;21;12.9
45112;PMS5003;30873;53.908;27.576;2023-04-16T09:46:44;26.3;22.1;13.1
45112;PMS5003;30873;53.908;27.576;2023-04-16T09:51:00;28.3;23.3;13.6
45112;PMS5003;30873;53.908;27.576;2023-04-16T09:56:18;27.9;23.5;14.4
45112;PMS5003;30873;53.908;27.576;2023-04-16T10:01:32;27.6;23.8;13.3
45112;PMS5003;30873;53.908;27.576;2023-04-16T10:06:13;28.1;22.5;12.9
45112;PMS5003;30873;53.908;27.576;2023-04-16T10:11:44;28.7;24;13.8
45112;PMS5003;30873;53.908;27.576;2023-04-16T10:16:20;27.9;22.2;12.7
45112;PMS5003;30873;53.908;27.576;2023-04-16T10:21:00;22.6;19.8;11.9
45112;PMS5003;30873;53.908;27.576;2023-04-16T10:26:32;23.9;20.5;12.4
45112;PMS5003;30873;53.908;27.576;2023-04-16T10:31:20;22.6;20.2;11.9
45112;PMS5003;30873;53.908;27.576;2023-04-16T10:36:46;23.4;20.4;12.4
45112;PMS5003;30873;53.908;27.576;2023-04-16T10:41:20;22.4;18.8;11.3
45112;PMS5003;30873;53.908;27.576;2023-04-16T10:46:23;24.1;20.8;12.2
45112;PMS5003;30873;53.908;27.576;2023-04-16T10:51:33;22.1;18.8;11.2
45112;PMS5003;30873;53.908;27.576;2023-04-16T10:56:31;20.1;18.5;11.2
45112;PMS5003;30873;53.908;27.576;2023-04-16T11:01:44;22.7;19.3;11.1
45112;PMS5003;30873;53.908;27.576;2023-04-16T11:06:22;22.8;18.8;10.7
45112;PMS5003;30873;53.908;27.576;2023-04-16T11:11:00;20.4;18.4;10.9
45112;PMS5003;30873;53.908;27.576;2023-04-16T11:16:44;24.1;19;11.2
45112;PMS5003;30873;53.908;27.576;2023-04-16T11:21:08;22.1;19.2;11.1
45112;PMS5003;30873;53.908;27.576;2023-04-16T11:26:30;22.1;19;10.9
45112;PMS5003;30873;53.908;27.576;2023-04-16T11:31:09;20.7;17.5;10
45112;PMS5003;30873;53.908;27.576;2023-04-16T11:36:00;22.3;19.6;11.2
45112;PMS5003;30873;53.908;27.576;2023-04-16T11:41:44;21.5;18.1;10.6
45112;PMS5003;30873;53.908;27.576;2023-04-16T11:46:16;22;18.2;10.5
45112;PMS5003;30873;53.908;27.576;2023-04-16T11:51:26;20.1;17.7;10.2
45112;PMS5003;30873;53.908;27.576;2023-04-16T11:56:00;22.3;18;10.1
45112;PMS5003;30873;53.908;27.576;2023-04-16T12:01:00;22.2;17.5;11.1
45112;PMS5003;30873;53.908;27.576;2023-04-16T12:07:15;21.5;17.2;9.5
45112;PMS5003;30873;53.908;27.576;2023-04-16T12:11:00;22.9;18.4;10.9
45112;PMS5003;30873;53.908;27.576;2023-04-16T12:16:30;21.7;18.9;10.6
45112;PMS5003;30873;53.908;27.576;2023-04-16T12:21:20;21.2;18.1;10.4
45112;PMS5003;30873;53.908;27.576;2023-04-16T12:26:08;22.1;18.7;11.4
45112;PMS5003;30873;53.908;27.576;2023-04-16T12:31:42;23.4;19.6;10.8
45112;PMS5003;30873;53.908;27.576;2023-04-16T12:36:17;25.7;21.8;11.5
45112;PMS5003;30873;53.908;27.576;2023-04-16T12:41:30;24.8;20.6;11.6
45112;PMS5003;30873;53.908;27.576;2023-04-16T12:46:20;21;16.8;10.4
45112;PMS5003;30873;53.908;27.576;2023-04-16T12:51:00;19.9;18.3;10.7
45112;PMS5003;30873;53.908;27.576;2023-04-16T12:56:44;22.6;18.3;11.2
45112;PMS5003;30873;53.908;27.576;2023-04-16T13:01:08;22.4;18;10.7
45112;PMS5003;30873;53.908;27.576;2023-04-16T13:06:30;27.2;22.9;12.6
45112;PMS5003;30873;53.908;27.576;2023-04-16T13:11:18;21.7;18.8;10.7
45112;PMS5003;30873;53.908;27.576;2023-04-16T13:16:10;22.2;18.7;11.3
45112;PMS5003;30873;53.908;27.576;2023-04-16T13:21:42;19.7;17.3;9.6
45112;PMS5003;30873;53.908;27.576;2023-04-16T13:26:08;18.5;16.6;9.7
45112;PMS5003;30873;53.908;27.576;2023-04-16T13:31:30;19.4;16.5;9.3
45112;PMS5003;30873;53.908;27.576;2023-04-16T13:36:08;19.4;16.6;10
45112;PMS5003;30873;53.908;27.576;2023-04-16T13:41:00;18;15.8;9.9
45112;PMS5003;30873;53.908;27.576;2023-04-16T13:46:44;20.8;16.3;8.8
45112;PMS5003;30873;53.908;27.576;2023-04-16T13:51:01;17.7;15.2;8.7
45112;PMS5003;30873;53.908;27.576;2023-04-16T13:56:10;16.8;15.7;9.6
45112;PMS5003;30873;53.908;27.576;2023-04-16T14:01:00;18.7;15.9;10.1
45112;PMS5003;30873;53.908;27.576;2023-04-16T14:06:18;18.5;15.5;9.1
45112;PMS5003;30873;53.908;27.576;2023-04-16T14:11:44;20.7;16.2;10
45112;PMS5003;30873;53.908;27.576;2023-04-16T14:16:00;20.2;17.1;10.1
45112;PMS5003;30873;53.908;27.576;2023-04-16T14:21:30;21;17.6;10.1
45112;PMS5003;30873;53.908;27.576;2023-04-16T14:26:00;20.3;17.8;10.1
45112;PMS5003;30873;53.908;27.576;2023-04-16T14:31:08;21.6;17.5;10.2
45112;PMS5003;30873;53.908;27.576;2023-04-16T14:36:44;22;18.2;11.6
45112;PMS5003;30873;53.908;27.576;2023-04-16T14:41:00;23;18.8;11
45112;PMS5003;30873;53.908;27.576;2023-04-16T14:46:30;24.2;20.3;10.9
45112;PMS5003;30873;53.908;27.576;2023-04-16T14:51:20;24;20;11
45112;PMS5003;30873;53.908;27.576;2023-04-16T14:56:08;24.2;20.3;11.3
45112;PMS5003;30873;53.908;27.576;2023-04-16T15:01:44;25.4;20.5;12.1
45112;PMS5003;30873;53.908;27.576;2023-04-16T15:06:08;21.7;17.4;10.4
45112;PMS5003;30873;53.908;27.576;2023-04-16T15:11:30;23.1;19.7;10.9
45112;PMS5003;30873;53.908;27.576;2023-04-16T15:16:00;20.8;16.9;9.8
45112;PMS5003;30873;53.908;27.576;2023-04-16T15:21:18;18.8;15.9;9.6
45112;PMS5003;30873;53.908;27.576;2023-04-16T15:26:08;24.1;20.8;11.7
45112;PMS5003;30873;53.908;27.576;2023-04-16T15:31:08;19;16.7;9.8
45112;PMS5003;30873;53.908;27.576;2023-04-16T15:36:44;20;17.1;10
45112;PMS5003;30873;53.908;27.576;2023-04-16T15:41:32;19.8;16.5;9.6
45112;PMS5003;30873;53.908;27.576;2023-04-16T15:46:45;20.5;17.4;10.8
45112;PMS5003;30873;53.908;27.576;2023-04-16T15:51:08;21.2;17.9;10.2
45112;PMS5003;30873;53.908;27.576;2023-04-16T15:56:00;20.3;17.1;10
45112;PMS5003;30873;53.908;27.576;2023-04-16T16:01:44;19.5;16.7;9.7
45112;PMS5003;30873;53.908;27.576;2023-04-16T16:06:12;21.1;16.7;10.4
45112;PMS5003;30873;53.908;27.576;2023-04-16T16:11:02;20.8;16.2;9.3
45112;PMS5003;30873;53.908;27.576;2023-04-16T16:16:18;20.2;16.1;10.2
45112;PMS5003;30873;53.908;27.576;2023-04-16T16:21:20;19.6;15.9;9.6
45112;PMS5003;30873;53.908;27.576;2023-04-16T16:26:46;22.3;18.4;10.8
45112;PMS5003;30873;53.908;27.576;2023-04-16T16:31:32;20.1;17.3;10.3
45112;PMS5003;30873;53.908;27.576;2023-04-16T16:36:20;21.1;17.6;9.9
45112;PMS5003;30873;53.908;27.576;2023-04-16T16:41:08;19.6;16.4;9.6
45112;PMS5003;30873;53.908;27.576;2023-04-16T16:46:08;19.6;17.6;10.3
45112;PMS5003;30873;53.908;27.576;2023-04-16T16:51:10;21.5;18.7;10.7
45112;PMS5003;30873;53.908;27.576;2023-04-16T16:56:33;23.5;20.7;11.3
45112;PMS5003;30873;53.908;27.576;2023-04-16T17:01:46;20.5;17.8;10.3
45112;PMS5003;30873;53.908;27.576;2023-04-16T17:06:08;24.2;20.8;12
45112;PMS5003;30873;53.908;27.576;2023-04-16T17:11:32;22.5;18.9;11.4
45112;PMS5003;30873;53.908;27.576;2023-04-16T17:16:46;21.2;18.4;10.3
45112;PMS5003;30873;53.908;27.576;2023-04-16T17:21:32;24.3;19.3;11.4
45112;PMS5003;30873;53.908;27.576;2023-04-16T17:26:46;21.1;17.3;10.5
45112;PMS5003;30873;53.908;27.576;2023-04-16T17:31:12;22;18.7;10.4
45112;PMS5003;30873;53.908;27.576;2023-04-16T17:36:20;19.5;17.2;10.3
45112;PMS5003;30873;53.908;27.576;2023-04-16T17:41:46;21;17.6;10.2
45112;PMS5003;30873;53.908;27.576;2023-04-16T17:46:32;24.5;21.2;12.1
45112;PMS5003;30873;53.908;27.576;2023-04-16T17:51:46;24.7;21.4;12.8
45112;PMS5003;30873;53.908;27.576;2023-04-16T17:56:18;24.3;20.9;12
45112;PMS5003;30873;53.908;27.576;2023-04-16T18:01:08;28.9;23.1;13.1
45112;PMS5003;30873;53.908;27.576;2023-04-16T18:06:46;33;27.7;16.4
45112;PMS5003;30873;53.908;27.576;2023-04-16T18:11:32;34.8;29.1;15.6
45112;PMS5003;30873;53.908;27.576;2023-04-16T18:16:46;36;28.9;16.7
45112;PMS5003;30873;53.908;27.576;2023-04-16T18:21:12;36.6;31.4;16.9
45112;PMS5003;30873;53.908;27.576;2023-04-16T18:26:00;43;34.4;18.5
45112;PMS5003;30873;53.908;27.576;2023-04-16T18:31:46;39.3;33.4;18.6
45112;PMS5003;30873;53.908;27.576;2023-04-16T18:36:32;40.3;34.5;18.3
45112;PMS5003;30873;53.908;27.576;2023-04-16T18:41:30;41.5;34.8;20
45112;PMS5003;30873;53.908;27.576;2023-04-16T18:46:18;43.6;36;19.7
45112;PMS5003;30873;53.908;27.576;2023-04-16T18:51:10;37.7;32.9;19.3
45112;PMS5003;30873;53.908;27.576;2023-04-16T18:56:44;42;34.9;19.2
45112;PMS5003;30873;53.908;27.576;2023-04-16T19:01:20;40.3;34.6;19.5
45112;PMS5003;30873;53.908;27.576;2023-04-16T19:06:46;40.3;34.4;19.8
45112;PMS5003;30873;53.908;27.576;2023-04-16T19:11:01;41.7;34.1;19.2
45112;PMS5003;30873;53.908;27.576;2023-04-16T19:16:00;41.5;34.9;20
45112;PMS5003;30873;53.908;27.576;2023-04-16T19:21:44;43.4;36.6;20.1
45112;PMS5003;30873;53.908;27.576;2023-04-16T19:26:32;41.1;34.3;20.1
45112;PMS5003;30873;53.908;27.576;2023-04-16T19:31:46;43.4;35.3;19.3
45112;PMS5003;30873;53.908;27.576;2023-04-16T19:36:00;47;37.7;20.7
45112;PMS5003;30873;53.908;27.576;2023-04-16T19:41:20;47.1;36.3;20.1
45112;PMS5003;30873;53.908;27.576;2023-04-16T19:46:22;45;37.1;19.3
45112;PMS5003;30873;53.908;27.576;2023-04-16T19:51:32;48.4;37.5;20.3
45112;PMS5003;30873;53.908;27.576;2023-04-16T19:56:47;46.8;38.5;21.1
45112;PMS5003;30873;53.908;27.576;2023-04-16T20:01:20;49.2;38.1;21.6
45112;PMS5003;30873;53.908;27.576;2023-04-16T20:06:20;50.1;39.7;22.5
45112;PMS5003;30873;53.908;27.576;2023-04-16T20:11:35;47.7;38.6;21.6
45112;PMS5003;30873;53.908;27.576;2023-04-16T20:16:32;48.6;39.4;21.2
45112;PMS5003;30873;53.908;27.576;2023-04-16T20:21:46;49.2;40.6;21.5
45112;PMS5003;30873;53.908;27.576;2023-04-16T20:26:00;51.1;40.6;22.6
45112;PMS5003;30873;53.908;27.576;2023-04-16T20:31:20;48.2;39.4;21.4
45112;PMS5003;30873;53.908;27.576;2023-04-16T20:36:34;50.4;40.1;22.3
45112;PMS5003;30873;53.908;27.576;2023-04-16T20:41:32;52.8;40.9;22.1
45112;PMS5003;30873;53.908;27.576;2023-04-16T20:46:46;52.5;40.5;21.7
45112;PMS5003;30873;53.908;27.576;2023-04-16T20:51:20;51.9;41.3;22.7
45112;PMS5003;30873;53.908;27.576;2023-04-16T20:56:00;52.1;40.5;22.7
45112;PMS5003;30873;53.908;27.576;2023-04-16T21:01:00;54.4;41.1;22.2
45112;PMS5003;30873;53.908;27.576;2023-04-16T21:06:32;52.4;39.1;20.8
45112;PMS5003;30873;53.908;27.576;2023-04-16T21:11:46;53.9;41.8;23.1
45112;PMS5003;30873;53.908;27.576;2023-04-16T21:16:00;54.8;41.7;22.7
45112;PMS5003;30873;53.908;27.576;2023-04-16T21:21:12;54.2;42.1;23.6
45112;PMS5003;30873;53.908;27.576;2023-04-16T21:26:00;56;41.6;22.7
45112;PMS5003;30873;53.908;27.576;2023-04-16T21:31:32;58.1;43.8;24.3
45112;PMS5003;30873;53.908;27.576;2023-04-16T21:36:46;56;42.7;23.2
45112;PMS5003;30873;53.908;27.576;2023-04-16T21:41:18;55.6;42.9;24.7
45112;PMS5003;30873;53.908;27.576;2023-04-16T21:46:20;57.4;43.8;24.4
45112;PMS5003;30873;53.908;27.576;2023-04-16T21:51:00;58.7;44.2;24.5
45112;PMS5003;30873;53.908;27.576;2023-04-16T21:56:32;59.7;44.9;25.4
45112;PMS5003;30873;53.908;27.576;2023-04-16T22:01:46;58.8;44.3;24.1
45112;PMS5003;30873;53.908;27.576;2023-04-16T22:06:20;57.9;44.5;25.2
45112;PMS5003;30873;53.908;27.576;2023-04-16T22:11:20;60.2;44;24.1
45112;PMS5003;30873;53.908;27.576;2023-04-16T22:16:34;56.2;43.4;24.4
45112;PMS5003;30873;53.908;27.576;2023-04-16T22:21:32;59.7;43.9;24.6
45112;PMS5003;30873;53.908;27.576;2023-04-16T22:26:46;58.2;45;24.5
45112;PMS5003;30873;53.908;27.576;2023-04-16T22:31:34;59.8;43.7;23.9
45112;PMS5003;30873;53.908;27.576;2023-04-16T22:36:08;59.4;43.8;23.7
45112;PMS5003;30873;53.908;27.576;2023-04-16T22:41:20;59.9;43.7;23.5
45112;PMS5003;30873;53.908;27.576;2023-04-16T22:46:32;58.3;44;24.7
45112;PMS5003;30873;53.908;27.576;2023-04-16T22:51:46;60.7;45;25.2
45112;PMS5003;30873;53.908;27.576;2023-04-16T22:56:00;59.9;45.2;24.8
45112;PMS5003;30873;53.908;27.576;2023-04-16T23:01:00;58.4;43.4;23.8
45112;PMS5003;30873;53.908;27.576;2023-04-16T23:06:20;56.9;42.7;23.7
45112;PMS5003;30873;53.908;27.576;2023-04-16T23:11:32;61;45.3;24.3
45112;PMS5003;30873;53.908;27.576;2023-04-16T23:16:46;58.2;43.5;23.7
45112;PMS5003;30873;53.908;27.576;2023-04-16T23:21:18;60.1;44;24.1
45112;PMS5003;30873;53.908;27.576;2023-04-16T23:26:20;57.5;42.9;23.8
45112;PMS5003;30873;53.908;27.576;2023-04-16T23:31:20;56.5;43.1;23.8
45112;PMS5003;30873;53.908;27.576;2023-04-16T23:36:32;60.8;44.3;24.8
45112;PMS5003;30873;53.908;27.576;2023-04-16T23:41:32;59.5;44.6;24.7
45112;PMS5003;30873;53.908;27.576;2023-04-16T23:46:46;60.1;44.6;24.5
45112;PMS5003;30873;53.908;27.576;2023-04-16T23:51:32;58.6;43.1;24.1
45112;PMS5003;30873;53.908;27.576;2023-04-16T23:56:10;61.2;44.9;25.4
